createdAt,value
2023-02-02T00:02:27.494Z,61.19
2023-02-02T00:05:30.068Z,61.10
2023-02-02T00:08:32.792Z,60.92
2023-02-02T00:11:35.405Z,60.82
2023-02-02T00:14:37.936Z,60.77
2023-02-02T00:17:41.861Z,60.61
2023-02-02T00:20:45.348Z,61.23
2023-02-02T00:23:48.154Z,61.13
2023-02-02T00:26:52.705Z,60.90
2023-02-02T00:29:57.510Z,61.11
2023-02-02T00:33:01.409Z,61.39
2023-02-02T00:36:04.768Z,62.42
2023-02-02T00:39:08.268Z,62.56
2023-02-02T00:42:12.254Z,62.63
2023-02-02T00:45:18.046Z,62.02
2023-02-02T00:48:22.374Z,60.94
2023-02-02T00:51:24.993Z,61.66
2023-02-02T00:54:27.713Z,62.18
2023-02-02T00:57:30.741Z,61.71
2023-02-02T01:00:33.506Z,61.58
2023-02-02T01:03:37.697Z,61.57
2023-02-02T01:06:40.882Z,60.93
2023-02-02T01:09:43.769Z,61.08
2023-02-02T01:12:46.849Z,60.72
2023-02-02T01:15:49.911Z,60.70
2023-02-02T01:18:54.127Z,60.88
2023-02-02T01:21:57.359Z,61.65
2023-02-02T01:25:00.045Z,61.67
2023-02-02T01:28:02.651Z,61.06
2023-02-02T01:31:08.062Z,62.14
2023-02-02T01:34:11.974Z,62.27
2023-02-02T01:37:14.656Z,62.45
2023-02-02T01:40:17.387Z,63.20
2023-02-02T01:43:25.003Z,63.30
2023-02-02T01:46:29.518Z,63.35
2023-02-02T01:49:34.137Z,63.13
2023-02-02T01:52:37.564Z,63.64
2023-02-02T01:55:42.473Z,63.08
2023-02-02T01:58:46.133Z,63.38
2023-02-02T02:01:49.909Z,63.85
2023-02-02T02:04:53.870Z,63.56
2023-02-02T02:08:04.226Z,64.02
2023-02-02T02:11:08.354Z,64.07
2023-02-02T02:14:29.616Z,64.17
2023-02-02T02:17:43.723Z,64.51
2023-02-02T02:21:22.884Z,64.42
2023-02-02T02:25:04.393Z,64.83
2023-02-02T02:28:43.372Z,65.23
2023-02-02T02:32:02.477Z,65.33
2023-02-02T02:35:08.163Z,64.00
2023-02-02T02:38:12.898Z,64.27
2023-02-02T02:41:22.762Z,64.41
2023-02-02T02:44:25.820Z,63.94
2023-02-02T02:47:30.232Z,64.36
2023-02-02T02:50:32.944Z,64.49
2023-02-02T02:53:36.330Z,63.74
2023-02-02T02:56:45.247Z,63.89
2023-02-02T02:59:54.281Z,63.79
2023-02-02T03:03:01.972Z,64.12
2023-02-02T03:06:09.542Z,63.61
2023-02-02T03:09:14.488Z,64.29
2023-02-02T03:12:17.618Z,64.11
2023-02-02T03:15:20.959Z,63.50
2023-02-02T03:18:27.690Z,63.63
2023-02-02T03:21:30.426Z,64.00
2023-02-02T03:24:32.949Z,63.25
2023-02-02T03:27:35.587Z,64.00
2023-02-02T03:30:39.005Z,63.75
2023-02-02T03:33:43.363Z,64.47
2023-02-02T03:36:46.164Z,63.42
2023-02-02T03:39:48.809Z,63.28
2023-02-02T03:42:51.416Z,63.56
2023-02-02T03:45:58.151Z,63.93
2023-02-02T03:49:02.244Z,63.96
2023-02-02T03:52:05.094Z,63.32
2023-02-02T03:55:08.711Z,63.45
2023-02-02T04:01:38.273Z,63.63
2023-02-02T04:04:42.367Z,63.32
2023-02-02T04:07:44.972Z,63.93
2023-02-02T04:10:47.521Z,63.84
2023-02-02T04:13:50.258Z,64.31
2023-02-02T04:16:53.189Z,63.58
2023-02-02T04:19:58.488Z,64.78
2023-02-02T04:23:01.577Z,64.48
2023-02-02T04:26:04.678Z,64.35
2023-02-02T04:29:07.233Z,64.05
2023-02-02T04:32:10.158Z,64.92
2023-02-02T04:35:14.272Z,65.02
2023-02-02T04:38:17.019Z,64.43
2023-02-02T04:41:19.751Z,64.37
2023-02-02T04:44:22.625Z,63.93
2023-02-02T04:47:25.834Z,63.67
2023-02-02T04:50:30.130Z,65.17
2023-02-02T04:53:33.342Z,64.78
2023-02-02T04:56:36.216Z,64.98
2023-02-02T04:59:41.147Z,64.50
2023-02-02T05:02:44.891Z,63.87
2023-02-02T05:05:48.775Z,64.36
2023-02-02T05:08:51.525Z,64.16
2023-02-02T05:11:54.259Z,64.97
2023-02-02T05:14:56.949Z,64.78
2023-02-02T05:17:59.544Z,64.25
2023-02-02T05:21:04.375Z,63.59
2023-02-02T05:24:07.476Z,63.47
2023-02-02T05:27:10.238Z,63.98
2023-02-02T05:30:13.997Z,64.15
2023-02-02T05:33:18.352Z,63.92
2023-02-02T05:36:22.444Z,63.80
2023-02-02T05:39:25.304Z,63.86
2023-02-02T05:42:28.252Z,64.32
2023-02-02T05:45:30.917Z,65.06
2023-02-02T05:48:33.776Z,64.59
2023-02-02T05:51:40.662Z,65.13
2023-02-02T05:54:43.448Z,64.36
2023-02-02T05:57:46.139Z,65.07
2023-02-02T06:00:49.152Z,64.76
2023-02-02T06:03:52.116Z,65.24
2023-02-02T06:06:56.162Z,64.47
2023-02-02T06:09:59.311Z,64.91
2023-02-02T06:13:02.016Z,65.67
2023-02-02T06:16:05.117Z,64.72
2023-02-02T06:19:07.886Z,65.30
2023-02-02T06:22:12.052Z,65.04
2023-02-02T06:25:20.198Z,65.07
2023-02-02T06:28:22.996Z,64.76
2023-02-02T06:31:25.860Z,64.54
2023-02-02T06:34:28.764Z,64.70
2023-02-02T06:37:34.148Z,65.21
2023-02-02T06:40:37.132Z,64.21
2023-02-02T06:43:41.018Z,64.40
2023-02-02T06:46:43.864Z,64.72
2023-02-02T06:49:46.649Z,64.86
2023-02-02T06:52:50.826Z,63.94
2023-02-02T06:55:54.642Z,64.18
2023-02-02T06:58:57.389Z,64.73
2023-02-02T07:02:00.124Z,64.55
2023-02-02T07:05:02.941Z,64.70
2023-02-02T07:08:07.069Z,64.32
2023-02-02T07:11:15.605Z,63.71
2023-02-02T07:14:19.079Z,64.66
2023-02-02T07:17:22.048Z,64.24
2023-02-02T07:20:24.980Z,64.17
2023-02-02T07:23:30.583Z,64.37
2023-02-02T07:26:34.685Z,63.65
2023-02-02T07:29:37.487Z,63.70
2023-02-02T07:32:40.292Z,63.00
2023-02-02T07:35:43.080Z,63.19
2023-02-02T07:38:48.125Z,62.71
2023-02-02T07:41:50.790Z,62.90
2023-02-02T07:44:53.443Z,63.23
2023-02-02T07:47:59.231Z,63.13
2023-02-02T07:51:02.259Z,64.13
2023-02-02T07:54:06.786Z,63.04
2023-02-02T07:57:09.668Z,64.02
2023-02-02T08:00:13.441Z,63.52
2023-02-02T08:03:16.076Z,64.06
2023-02-02T08:06:20.762Z,63.54
2023-02-02T08:09:24.946Z,62.34
2023-02-02T08:12:28.312Z,62.31
2023-02-02T08:15:30.933Z,62.67
2023-02-02T08:18:33.897Z,62.34
2023-02-02T08:21:36.936Z,61.07
2023-02-02T08:24:42.984Z,60.54
2023-02-02T08:27:45.559Z,60.69
2023-02-02T08:30:48.567Z,60.61
2023-02-02T08:33:53.937Z,60.45
2023-02-02T08:36:56.836Z,59.56
2023-02-02T08:40:00.974Z,59.84
2023-02-02T08:43:04.552Z,60.41
2023-02-02T08:46:08.617Z,60.62
2023-02-02T08:49:14.252Z,59.82
2023-02-02T08:52:16.775Z,59.53
2023-02-02T08:55:20.792Z,59.90
2023-02-02T08:58:23.676Z,60.03
2023-02-02T09:01:27.637Z,60.71
2023-02-02T09:04:30.647Z,60.17
2023-02-02T09:07:33.367Z,59.88
2023-02-02T09:10:38.561Z,60.23
2023-02-02T09:13:42.623Z,60.70
2023-02-02T09:16:45.449Z,60.57
2023-02-02T09:19:48.205Z,59.74
2023-02-02T09:22:50.877Z,60.11
2023-02-02T09:25:55.164Z,61.13
2023-02-02T09:28:58.982Z,60.53
2023-02-02T09:32:01.763Z,61.19
2023-02-02T09:35:04.748Z,60.80
2023-02-02T09:38:07.463Z,60.57
2023-02-02T09:41:24.795Z,60.65
2023-02-02T09:44:46.777Z,60.41
2023-02-02T09:47:55.447Z,60.83
2023-02-02T09:50:59.709Z,61.57
2023-02-02T09:54:06.245Z,62.46
2023-02-02T09:57:16.232Z,62.22
2023-02-02T10:00:27.269Z,62.04
2023-02-02T10:03:33.425Z,61.94
2023-02-02T10:06:38.987Z,62.90
2023-02-02T10:09:48.425Z,63.11
2023-02-02T10:12:55.812Z,62.85
2023-02-02T10:16:04.326Z,63.10
2023-02-02T10:19:10.911Z,62.08
2023-02-02T10:22:16.882Z,62.35
2023-02-02T10:25:21.972Z,61.66
2023-02-02T10:28:47.319Z,62.11
2023-02-02T10:31:57.246Z,61.86
2023-02-02T10:35:13.967Z,61.68
2023-02-02T10:38:21.627Z,62.14
2023-02-02T10:41:30.241Z,61.32
2023-02-02T10:44:38.698Z,61.15
2023-02-02T10:47:41.279Z,62.09
2023-02-02T10:50:45.452Z,61.31
2023-02-02T10:53:52.754Z,62.87
2023-02-02T10:56:57.265Z,63.53
2023-02-02T11:00:22.361Z,63.04
2023-02-02T11:03:28.455Z,61.83
2023-02-02T11:06:48.665Z,62.35
2023-02-02T11:09:52.972Z,62.74
2023-02-02T11:12:57.401Z,63.39
2023-02-02T11:16:23.846Z,63.30
2023-02-02T11:19:29.787Z,62.46
2023-02-02T11:22:34.905Z,61.81
2023-02-02T11:25:39.566Z,61.89
2023-02-02T11:28:42.333Z,60.73
2023-02-02T11:31:46.889Z,60.42
2023-02-02T11:34:49.620Z,61.57
2023-02-02T11:38:02.209Z,60.84
2023-02-02T11:41:09.047Z,60.52
2023-02-02T11:44:20.488Z,60.80
2023-02-02T11:47:28.087Z,61.41
2023-02-02T11:50:31.043Z,61.67
2023-02-02T11:53:35.622Z,61.43
2023-02-02T11:56:39.618Z,62.30
2023-02-02T11:59:43.568Z,61.78
2023-02-02T12:02:49.510Z,61.55
2023-02-02T12:05:52.636Z,62.71
2023-02-02T12:08:58.745Z,63.80
2023-02-02T12:12:05.661Z,65.04
2023-02-02T12:15:19.877Z,66.13
2023-02-02T12:18:38.152Z,66.66
2023-02-02T12:21:46.449Z,67.44
2023-02-02T12:24:53.179Z,67.82
2023-02-02T12:27:59.624Z,66.53
2023-02-02T12:31:08.600Z,67.94
2023-02-02T12:34:21.034Z,68.91
2023-02-02T12:37:33.138Z,68.14
2023-02-02T12:41:06.411Z,67.91
2023-02-02T12:44:15.762Z,69.26
2023-02-02T12:47:22.221Z,69.76
2023-02-02T12:50:31.362Z,69.30
2023-02-02T12:54:33.594Z,70.23
2023-02-02T12:57:17.904Z,70.72
2023-02-02T13:00:38.412Z,70.93
2023-02-02T13:03:53.525Z,70.98
2023-02-02T13:07:15.605Z,71.40
2023-02-02T13:10:24.644Z,70.99
2023-02-02T13:13:31.342Z,72.20
2023-02-02T13:16:37.427Z,71.47
2023-02-02T13:19:42.248Z,70.96
2023-02-02T13:22:46.773Z,72.26
2023-02-02T13:25:51.788Z,72.23
2023-02-02T13:28:58.962Z,71.50
2023-02-02T13:32:05.682Z,70.55
2023-02-02T13:35:17.469Z,68.81
2023-02-02T13:38:24.729Z,68.26
2023-02-02T13:41:28.323Z,68.19
2023-02-02T13:44:33.727Z,67.74
2023-02-02T13:47:39.016Z,67.08
2023-02-02T13:50:48.775Z,67.29
2023-02-02T13:54:20.898Z,66.43
2023-02-02T13:57:38.351Z,67.09
2023-02-02T14:00:42.736Z,66.77
2023-02-02T14:03:52.749Z,66.98
2023-02-02T14:06:57.579Z,66.23
2023-02-02T14:10:01.741Z,66.82
2023-02-02T14:13:35.235Z,66.25
2023-02-02T14:16:52.346Z,65.76
2023-02-02T14:19:56.154Z,65.65
2023-02-02T14:22:58.637Z,64.66
2023-02-02T14:26:10.319Z,64.71
2023-02-02T14:29:40.619Z,64.28
2023-02-02T14:32:44.126Z,63.98
2023-02-02T14:36:05.093Z,64.71
2023-02-02T14:39:20.314Z,65.18
2023-02-02T14:42:50.835Z,64.05
2023-02-02T14:46:22.376Z,64.65
2023-02-02T14:49:29.830Z,63.83
2023-02-02T14:52:32.769Z,63.91
2023-02-02T14:55:37.383Z,63.47
2023-02-02T14:58:45.931Z,63.98
2023-02-02T15:01:57.319Z,62.56
2023-02-02T15:05:38.762Z,62.39
2023-02-02T15:08:41.933Z,62.29
2023-02-02T15:12:19.058Z,62.98
2023-02-02T15:15:25.468Z,61.98
2023-02-02T15:18:33.310Z,62.65
2023-02-02T15:21:37.500Z,62.26
2023-02-02T15:24:40.328Z,61.17
2023-02-02T15:27:56.694Z,61.80
2023-02-02T15:31:03.878Z,62.19
2023-02-02T15:34:15.024Z,62.15
2023-02-02T15:37:21.535Z,62.23
2023-02-02T15:40:25.828Z,62.44
2023-02-02T15:43:29.032Z,63.07
2023-02-02T15:46:35.701Z,62.67
2023-02-02T15:49:38.491Z,63.31
2023-02-02T15:52:46.988Z,63.50
2023-02-02T15:55:49.756Z,63.27
2023-02-02T15:58:54.725Z,62.79
2023-02-02T16:02:07.016Z,62.73
2023-02-02T16:05:25.536Z,62.37
2023-02-02T16:08:34.221Z,62.91
2023-02-02T16:11:42.565Z,62.69
2023-02-02T16:14:46.349Z,62.57
2023-02-02T16:18:00.699Z,61.94
2023-02-02T16:21:25.158Z,62.41
2023-02-02T16:24:31.507Z,62.42
2023-02-02T16:27:34.727Z,62.09
2023-02-02T16:30:39.512Z,62.22
2023-02-02T16:33:44.546Z,62.33
2023-02-02T16:37:05.355Z,62.32
2023-02-02T16:40:22.542Z,62.17
2023-02-02T16:43:29.858Z,62.31
2023-02-02T16:46:44.698Z,62.62
2023-02-02T16:49:48.906Z,62.04
2023-02-02T16:52:53.626Z,62.36
2023-02-02T16:55:57.880Z,62.19
2023-02-02T16:59:03.486Z,61.99
2023-02-02T17:02:21.052Z,62.19
2023-02-02T17:05:29.150Z,62.38
2023-02-02T17:08:33.983Z,62.68
2023-02-02T17:11:37.111Z,63.44
2023-02-02T17:14:52.415Z,63.54
2023-02-02T17:17:55.182Z,62.91
2023-02-02T17:21:04.147Z,63.53
2023-02-02T17:24:07.419Z,63.64
2023-02-02T17:27:14.713Z,63.95
2023-02-02T17:30:19.723Z,63.60
2023-02-02T17:33:22.584Z,64.42
2023-02-02T17:36:26.703Z,64.33
2023-02-02T17:39:29.404Z,64.08
2023-02-02T17:42:36.029Z,64.01
2023-02-02T17:45:38.977Z,64.98
2023-02-02T17:48:42.033Z,64.39
2023-02-02T17:51:45.971Z,64.79
2023-02-02T17:54:48.906Z,64.38
2023-02-02T17:57:53.169Z,64.61
2023-02-02T18:00:59.102Z,64.71
2023-02-02T18:04:01.974Z,64.42
2023-02-02T18:07:07.808Z,64.60
2023-02-02T18:10:12.513Z,64.10
2023-02-02T18:13:16.510Z,63.41
2023-02-02T18:16:19.837Z,63.75
2023-02-02T18:19:22.610Z,63.99
2023-02-02T18:22:27.230Z,63.84
2023-02-02T18:25:30.540Z,64.03
2023-02-02T18:28:34.949Z,63.48
2023-02-02T18:31:38.433Z,63.71
2023-02-02T18:34:43.449Z,63.84
2023-02-02T18:37:49.781Z,63.62
2023-02-02T18:40:56.137Z,63.46
2023-02-02T18:44:00.222Z,63.75
2023-02-02T18:47:02.834Z,63.72
2023-02-02T18:50:06.177Z,64.47
2023-02-02T18:53:10.353Z,64.42
2023-02-02T18:56:14.378Z,64.50
2023-02-02T18:59:17.247Z,64.09
2023-02-02T19:02:21.597Z,64.83
2023-02-02T19:05:41.742Z,64.77
2023-02-02T19:08:46.022Z,64.55
2023-02-02T19:11:50.481Z,64.44
2023-02-02T19:14:53.110Z,64.04
2023-02-02T19:17:56.300Z,64.56
2023-02-02T19:20:58.914Z,64.46
2023-02-02T19:24:02.813Z,64.92
2023-02-02T19:27:12.204Z,64.57
2023-02-02T19:30:20.202Z,64.54
2023-02-02T19:33:24.574Z,64.57
2023-02-02T19:36:28.469Z,63.73
2023-02-02T19:39:32.790Z,63.50
2023-02-02T19:42:35.573Z,63.62
2023-02-02T19:45:39.698Z,63.48
2023-02-02T19:48:43.244Z,63.53
2023-02-02T19:51:47.156Z,63.62
2023-02-02T19:54:51.474Z,63.56
2023-02-02T19:57:55.371Z,63.35
2023-02-02T20:00:58.509Z,63.82
2023-02-02T20:04:04.043Z,63.34
2023-02-02T20:07:11.566Z,63.55
2023-02-02T20:10:22.186Z,64.24
2023-02-02T20:13:25.805Z,64.43
2023-02-02T20:16:37.250Z,64.70
2023-02-02T20:19:42.620Z,64.94
2023-02-02T20:22:45.426Z,65.45
2023-02-02T20:25:49.337Z,65.21
2023-02-02T20:28:53.415Z,65.17
2023-02-02T20:31:58.177Z,65.34
2023-02-02T20:35:01.051Z,65.84
2023-02-02T20:38:04.095Z,65.05
2023-02-02T20:41:08.340Z,66.05
2023-02-02T20:44:11.018Z,66.23
2023-02-02T20:47:13.702Z,66.56
2023-02-02T20:50:19.264Z,66.98
2023-02-02T20:53:22.374Z,67.44
2023-02-02T20:56:26.694Z,67.07
2023-02-02T20:59:29.527Z,67.20
2023-02-02T21:02:33.216Z,68.12
2023-02-02T21:05:36.373Z,67.70
2023-02-02T21:08:39.669Z,67.71
2023-02-02T21:11:43.997Z,67.79
2023-02-02T21:14:47.011Z,67.37
2023-02-02T21:17:49.994Z,67.04
2023-02-02T21:20:52.699Z,66.89
2023-02-02T21:23:56.289Z,66.35
2023-02-02T21:27:02.202Z,67.04
2023-02-02T21:30:05.436Z,66.90
2023-02-02T21:33:08.377Z,66.52
2023-02-02T21:36:24.465Z,66.42
2023-02-02T21:39:30.221Z,66.50
2023-02-02T21:42:35.485Z,65.93
2023-02-02T21:45:39.671Z,65.80
2023-02-02T21:48:42.539Z,66.21
2023-02-02T21:51:45.417Z,66.90
2023-02-02T21:54:48.844Z,65.77
2023-02-02T21:57:53.088Z,65.52
2023-02-02T22:00:59.541Z,65.88
2023-02-02T22:04:02.276Z,65.96
2023-02-02T22:07:13.186Z,66.07
2023-02-02T22:10:37.232Z,66.25
2023-02-02T22:13:41.515Z,65.21
2023-02-02T22:16:45.752Z,65.85
2023-02-02T22:19:48.773Z,64.79
2023-02-02T22:22:52.784Z,64.73
2023-02-02T22:25:56.692Z,65.05
2023-02-02T22:29:00.672Z,65.84
2023-02-02T22:32:03.969Z,65.52
2023-02-02T22:35:06.951Z,65.22
2023-02-02T22:38:10.096Z,65.44
2023-02-02T22:41:12.805Z,65.53
2023-02-02T22:44:16.799Z,65.44
2023-02-02T22:47:19.371Z,65.42
2023-02-02T22:50:24.118Z,65.46
2023-02-02T22:53:27.270Z,65.26
2023-02-02T22:56:29.948Z,65.91
2023-02-02T22:59:33.875Z,65.71
2023-02-02T23:02:36.487Z,65.29
2023-02-02T23:05:39.174Z,66.31
2023-02-02T23:08:42.005Z,66.53
2023-02-02T23:11:45.605Z,66.10
2023-02-02T23:14:49.746Z,66.29
2023-02-02T23:17:52.744Z,66.44
2023-02-02T23:20:55.327Z,66.68
2023-02-02T23:23:58.089Z,67.33
2023-02-02T23:27:00.793Z,67.40
2023-02-02T23:30:05.967Z,67.88
2023-02-02T23:33:08.566Z,68.31
2023-02-02T23:36:11.335Z,68.41
2023-02-02T23:39:14.011Z,67.96
2023-02-02T23:42:16.676Z,67.62
2023-02-02T23:45:20.622Z,67.20
2023-02-02T23:48:23.247Z,68.23
2023-02-02T23:51:26.036Z,67.43
2023-02-02T23:54:29.033Z,67.72
2023-02-02T23:57:33.713Z,67.74
